createdAt,value
2019-05-19T00:00:28.161Z,6.57
2019-05-19T00:03:32.953Z,6.40
2019-05-19T00:06:37.744Z,6.57
2019-05-19T00:09:42.540Z,6.83
2019-05-19T00:12:47.221Z,6.83
2019-05-19T00:15:51.898Z,6.80
2019-05-19T00:18:56.555Z,6.37
2019-05-19T00:22:01.200Z,7.70
2019-05-19T00:25:06.614Z,7.00
2019-05-19T00:28:11.432Z,7.20
2019-05-19T00:31:16.091Z,8.10
2019-05-19T00:34:20.727Z,7.20
2019-05-19T00:37:25.417Z,7.90
2019-05-19T00:40:30.077Z,7.30
2019-05-19T00:43:34.799Z,6.70
2019-05-19T00:46:39.655Z,6.93
2019-05-19T00:49:44.370Z,7.80
2019-05-19T00:52:48.992Z,7.13
2019-05-19T00:55:54.389Z,7.73
2019-05-19T00:58:59.930Z,6.93
2019-05-19T01:02:05.038Z,6.63
2019-05-19T01:05:09.874Z,8.03
2019-05-19T01:08:14.573Z,7.13
2019-05-19T01:11:19.291Z,7.70
2019-05-19T01:14:43.265Z,6.80
2019-05-19T01:17:47.889Z,8.37
2019-05-19T01:20:53.028Z,7.13
2019-05-19T01:23:57.699Z,8.20
2019-05-19T01:27:02.537Z,7.70
2019-05-19T01:30:08.498Z,7.70
2019-05-19T01:33:13.313Z,7.70
2019-05-19T01:36:18.016Z,7.90
2019-05-19T01:39:22.923Z,8.00
2019-05-19T01:42:27.605Z,8.20
2019-05-19T01:45:32.397Z,8.07
2019-05-19T01:48:37.054Z,8.37
2019-05-19T01:51:41.765Z,9.00
2019-05-19T01:54:47.063Z,7.90
2019-05-19T01:57:51.805Z,8.07
2019-05-19T02:00:56.438Z,8.93
2019-05-19T02:04:01.069Z,8.23
2019-05-19T02:07:05.710Z,8.00
2019-05-19T02:10:10.793Z,7.03
2019-05-19T02:13:15.432Z,7.20
2019-05-19T02:16:20.154Z,8.73
2019-05-19T02:19:24.833Z,7.90
2019-05-19T02:22:29.551Z,9.00
2019-05-19T02:25:34.189Z,8.17
2019-05-19T02:28:38.824Z,7.80
2019-05-19T02:31:43.865Z,8.93
2019-05-19T02:34:48.616Z,8.17
2019-05-19T02:37:53.307Z,8.30
2019-05-19T02:40:58.501Z,8.30
2019-05-19T02:44:04.944Z,7.63
2019-05-19T02:47:12.716Z,9.20
2019-05-19T02:50:18.219Z,8.73
2019-05-19T02:53:24.387Z,8.47
2019-05-19T02:56:30.690Z,8.23
2019-05-19T02:59:36.266Z,8.03
2019-05-19T03:02:40.899Z,8.63
2019-05-19T03:05:45.546Z,8.90
2019-05-19T03:08:50.168Z,8.40
2019-05-19T03:11:54.879Z,9.20
2019-05-19T03:14:59.532Z,9.60
2019-05-19T03:18:04.249Z,9.07
2019-05-19T03:21:11.676Z,9.63
2019-05-19T03:24:15.450Z,11.00
2019-05-19T03:27:20.179Z,10.60
2019-05-19T03:30:50.031Z,8.27
2019-05-19T03:33:54.691Z,8.30
2019-05-19T03:36:59.550Z,9.97
2019-05-19T03:40:06.498Z,9.00
2019-05-19T03:43:11.138Z,10.23
2019-05-19T03:46:15.869Z,9.37
2019-05-19T03:49:21.504Z,9.73
2019-05-19T03:52:26.122Z,10.17
2019-05-19T03:55:30.934Z,10.37
2019-05-19T03:58:35.582Z,9.83
2019-05-19T04:01:40.238Z,10.63
2019-05-19T04:04:44.942Z,9.60
2019-05-19T04:07:49.634Z,10.10
2019-05-19T04:10:54.476Z,10.73
2019-05-19T04:13:59.201Z,10.07
2019-05-19T04:17:04.020Z,11.73
2019-05-19T04:20:09.023Z,10.87
2019-05-19T04:23:13.893Z,11.60
2019-05-19T04:26:18.624Z,11.40
2019-05-19T04:29:23.375Z,11.23
2019-05-19T04:32:28.022Z,13.93
2019-05-19T04:35:32.826Z,11.43
2019-05-19T04:38:37.549Z,11.43
2019-05-19T04:41:42.276Z,12.27
2019-05-19T04:44:46.993Z,12.30
2019-05-19T04:47:51.639Z,13.17
2019-05-19T04:50:56.278Z,12.73
2019-05-19T04:54:00.917Z,12.97
2019-05-19T04:57:05.644Z,12.70
2019-05-19T05:00:10.533Z,13.83
2019-05-19T05:03:15.186Z,12.93
2019-05-19T05:06:19.902Z,14.33
2019-05-19T05:09:25.905Z,15.00
2019-05-19T05:12:30.563Z,12.47
2019-05-19T05:15:35.362Z,12.70
2019-05-19T05:18:40.016Z,12.77
2019-05-19T05:21:44.685Z,12.47
2019-05-19T05:24:49.390Z,13.57
2019-05-19T05:27:54.134Z,13.50
2019-05-19T05:30:58.867Z,14.40
2019-05-19T05:34:03.586Z,14.00
2019-05-19T05:37:08.378Z,14.43
2019-05-19T05:40:13.205Z,14.10
2019-05-19T05:43:17.988Z,13.63
2019-05-19T05:46:22.801Z,14.97
2019-05-19T05:49:27.866Z,16.37
2019-05-19T05:52:38.667Z,16.00
2019-05-19T05:55:39.089Z,15.90
2019-05-19T05:58:43.805Z,18.20
2019-05-19T06:01:50.080Z,16.50
2019-05-19T06:04:54.754Z,16.70
2019-05-19T06:07:59.397Z,17.80
2019-05-19T06:11:04.187Z,17.30
2019-05-19T06:14:08.951Z,18.00
2019-05-19T06:17:13.732Z,18.83
2019-05-19T06:20:18.548Z,21.43
2019-05-19T06:23:23.467Z,23.27
2019-05-19T06:26:28.173Z,23.40
2019-05-19T06:29:33.206Z,24.40
2019-05-19T06:32:42.608Z,22.53
2019-05-19T06:35:47.386Z,25.10
2019-05-19T06:38:52.403Z,22.23
2019-05-19T06:41:57.262Z,22.10
2019-05-19T06:45:02.051Z,24.50
2019-05-19T06:48:06.934Z,23.47
2019-05-19T06:51:11.952Z,25.70
2019-05-19T06:54:16.814Z,24.60
2019-05-19T06:57:21.633Z,24.60
2019-05-19T07:00:26.450Z,23.87
2019-05-19T07:03:31.364Z,23.83
2019-05-19T07:06:36.035Z,23.37
2019-05-19T07:09:40.818Z,24.40
2019-05-19T07:12:45.972Z,24.83
2019-05-19T07:15:50.860Z,23.10
2019-05-19T07:18:55.655Z,25.33
2019-05-19T07:22:01.952Z,24.57
2019-05-19T07:25:07.471Z,25.47
2019-05-19T07:28:12.210Z,24.70
2019-05-19T07:31:16.918Z,24.20
2019-05-19T07:34:21.762Z,23.20
2019-05-19T07:37:26.404Z,22.50
2019-05-19T07:40:31.387Z,22.50
2019-05-19T07:43:36.184Z,21.47
2019-05-19T07:46:40.972Z,21.97
2019-05-19T07:49:45.729Z,22.10
2019-05-19T07:52:50.517Z,21.03
2019-05-19T07:55:55.178Z,20.03
2019-05-19T07:59:02.576Z,22.57
2019-05-19T08:02:07.558Z,22.63
2019-05-19T08:05:12.443Z,20.77
2019-05-19T08:08:17.419Z,20.23
2019-05-19T08:11:22.309Z,19.43
2019-05-19T08:14:27.054Z,18.97
2019-05-19T08:17:31.894Z,19.63
2019-05-19T08:20:36.606Z,18.87
2019-05-19T08:23:41.785Z,18.47
2019-05-19T08:26:46.924Z,20.30
2019-05-19T08:29:52.094Z,17.63
2019-05-19T08:32:57.418Z,18.50
2019-05-19T08:36:02.545Z,20.17
2019-05-19T08:39:07.675Z,18.80
2019-05-19T08:42:12.687Z,20.97
2019-05-19T08:45:17.994Z,18.57
2019-05-19T08:48:22.993Z,17.20
2019-05-19T08:51:28.278Z,16.03
2019-05-19T08:54:33.286Z,18.10
2019-05-19T08:57:38.476Z,16.77
2019-05-19T09:00:43.421Z,16.17
2019-05-19T09:03:48.811Z,18.20
2019-05-19T09:06:53.755Z,15.63
2019-05-19T09:09:58.868Z,14.20
2019-05-19T09:13:04.027Z,14.87
2019-05-19T09:16:09.137Z,16.17
2019-05-19T09:19:25.876Z,14.77
2019-05-19T09:22:30.823Z,14.57
2019-05-19T09:25:36.276Z,14.67
2019-05-19T09:28:41.361Z,12.70
2019-05-19T09:31:46.902Z,12.90
2019-05-19T09:34:51.874Z,11.70
2019-05-19T09:37:57.351Z,11.50
2019-05-19T09:41:02.302Z,11.40
2019-05-19T09:44:08.942Z,10.70
2019-05-19T09:47:13.918Z,10.30
2019-05-19T09:50:19.242Z,10.40
2019-05-19T09:53:24.269Z,11.20
2019-05-19T09:56:29.615Z,11.73
2019-05-19T09:59:34.831Z,14.63
2019-05-19T10:02:39.997Z,12.23
2019-05-19T10:05:45.136Z,11.93
2019-05-19T10:08:56.726Z,11.37
2019-05-19T10:12:04.138Z,12.67
2019-05-19T10:15:11.033Z,10.33
2019-05-19T10:18:16.415Z,11.47
2019-05-19T10:21:21.441Z,11.73
2019-05-19T10:24:26.703Z,12.93
2019-05-19T10:27:34.243Z,11.27
2019-05-19T10:30:39.494Z,11.03
2019-05-19T10:33:44.553Z,11.30
2019-05-19T10:36:49.652Z,12.87
2019-05-19T10:39:54.634Z,13.50
2019-05-19T10:42:59.710Z,16.97
2019-05-19T10:46:05.574Z,11.83
2019-05-19T10:49:10.591Z,12.17
2019-05-19T10:52:17.462Z,11.63
2019-05-19T10:55:35.445Z,13.13
2019-05-19T10:58:29.178Z,12.47
2019-05-19T11:01:34.217Z,11.13
2019-05-19T11:04:39.405Z,10.33
2019-05-19T11:07:44.345Z,11.33
2019-05-19T11:10:49.583Z,12.50
2019-05-19T11:13:54.943Z,11.90
2019-05-19T11:17:00.033Z,12.83
2019-05-19T11:20:05.646Z,13.10
2019-05-19T11:23:11.115Z,10.23
2019-05-19T11:26:16.326Z,10.80
2019-05-19T11:29:21.583Z,12.50
2019-05-19T11:32:26.765Z,11.47
2019-05-19T11:35:31.831Z,11.03
2019-05-19T11:38:36.961Z,11.07
2019-05-19T11:41:42.198Z,10.53
2019-05-19T11:44:47.171Z,9.10
2019-05-19T11:47:52.243Z,9.50
2019-05-19T11:50:57.299Z,11.23
2019-05-19T11:54:02.374Z,11.47
2019-05-19T11:57:07.442Z,14.80
2019-05-19T12:00:12.689Z,12.80
2019-05-19T12:03:17.970Z,11.50
2019-05-19T12:06:38.236Z,11.37
2019-05-19T12:09:29.780Z,11.27
2019-05-19T12:12:34.890Z,11.37
2019-05-19T12:15:40.134Z,11.57
2019-05-19T12:18:45.329Z,12.17
2019-05-19T12:21:50.431Z,12.50
2019-05-19T12:24:55.545Z,12.00
2019-05-19T12:28:01.821Z,12.20
2019-05-19T12:31:06.951Z,11.73
2019-05-19T12:34:12.107Z,12.40
2019-05-19T12:37:17.293Z,11.80
2019-05-19T12:40:22.872Z,12.97
2019-05-19T12:43:29.610Z,11.43
2019-05-19T12:46:34.580Z,11.20
2019-05-19T12:49:40.029Z,11.53
2019-05-19T12:52:45.100Z,9.83
2019-05-19T12:55:51.962Z,10.90
2019-05-19T12:58:57.062Z,10.20
2019-05-19T13:02:02.037Z,10.20
2019-05-19T13:05:07.197Z,9.97
2019-05-19T13:08:12.420Z,10.40
2019-05-19T13:11:17.637Z,11.10
2019-05-19T13:14:22.738Z,10.60
2019-05-19T13:17:28.202Z,11.40
2019-05-19T13:20:33.317Z,10.93
2019-05-19T13:23:38.556Z,10.90
2019-05-19T13:26:55.555Z,10.03
2019-05-19T13:29:50.559Z,10.17
2019-05-19T13:32:55.506Z,10.10
2019-05-19T13:36:02.592Z,9.83
2019-05-19T13:39:07.919Z,9.93
2019-05-19T13:42:16.394Z,9.00
2019-05-19T13:45:21.963Z,10.80
2019-05-19T13:48:27.175Z,8.40
2019-05-19T13:51:32.375Z,8.67
2019-05-19T13:54:37.422Z,8.60
2019-05-19T13:57:42.561Z,10.20
2019-05-19T14:00:47.715Z,7.00
2019-05-19T14:03:52.771Z,8.87
2019-05-19T14:06:57.825Z,9.53
2019-05-19T14:10:03.071Z,8.60
2019-05-19T14:13:08.160Z,9.40
2019-05-19T14:16:14.803Z,8.30
2019-05-19T14:19:19.774Z,11.03
2019-05-19T14:22:26.306Z,9.20
2019-05-19T14:25:31.334Z,7.77
2019-05-19T14:28:37.202Z,9.00
2019-05-19T14:31:42.146Z,7.97
2019-05-19T14:34:48.227Z,8.00
2019-05-19T14:37:52.812Z,7.70
2019-05-19T14:40:57.870Z,7.77
2019-05-19T14:44:03.994Z,7.53
2019-05-19T14:47:09.243Z,7.00
2019-05-19T14:50:14.776Z,7.43
2019-05-19T14:53:19.971Z,8.20
2019-05-19T14:56:25.189Z,7.67
2019-05-19T14:59:30.337Z,8.63
2019-05-19T15:02:35.575Z,8.60
2019-05-19T15:05:40.729Z,7.03
2019-05-19T15:08:45.887Z,7.13
2019-05-19T15:11:51.031Z,7.73
2019-05-19T15:14:56.178Z,8.40
2019-05-19T15:18:01.265Z,8.10
2019-05-19T15:21:06.637Z,9.80
2019-05-19T15:24:11.660Z,8.80
2019-05-19T15:27:17.039Z,8.57
2019-05-19T15:30:21.611Z,8.80
2019-05-19T15:33:37.372Z,8.20
2019-05-19T15:36:37.294Z,8.07
2019-05-19T15:39:42.702Z,8.50
2019-05-19T15:42:47.825Z,8.63
2019-05-19T15:45:53.057Z,8.77
2019-05-19T15:48:58.187Z,9.40
2019-05-19T15:52:05.195Z,9.57
2019-05-19T15:55:11.091Z,10.13
2019-05-19T15:58:17.129Z,12.90
2019-05-19T16:01:22.421Z,8.97
2019-05-19T16:04:27.566Z,10.00
2019-05-19T16:07:32.796Z,10.30
2019-05-19T16:10:37.833Z,9.80
2019-05-19T16:13:44.475Z,10.10
2019-05-19T16:16:49.582Z,9.37
2019-05-19T16:19:55.047Z,9.73
2019-05-19T16:23:01.389Z,9.67
2019-05-19T16:26:06.662Z,10.37
2019-05-19T16:29:11.814Z,10.10
2019-05-19T16:32:16.994Z,11.00
2019-05-19T16:35:22.039Z,12.00
2019-05-19T16:38:27.098Z,11.80
2019-05-19T16:41:32.258Z,9.53
2019-05-19T16:44:37.222Z,9.33
2019-05-19T16:47:42.455Z,11.10
2019-05-19T16:50:47.453Z,10.87
2019-05-19T16:53:55.359Z,10.80
2019-05-19T16:57:00.393Z,9.33
2019-05-19T17:00:05.618Z,9.67
2019-05-19T17:03:10.634Z,11.80
2019-05-19T17:06:16.394Z,10.07
2019-05-19T17:09:21.412Z,10.73
2019-05-19T17:12:26.871Z,10.60
2019-05-19T17:15:31.938Z,10.67
2019-05-19T17:18:38.504Z,10.67
2019-05-19T17:21:43.439Z,9.43
2019-05-19T17:24:48.757Z,10.50
2019-05-19T17:27:53.826Z,9.67
2019-05-19T17:30:58.895Z,10.30
2019-05-19T17:34:04.156Z,9.33
2019-05-19T17:37:09.314Z,10.07
2019-05-19T17:40:15.093Z,10.53
2019-05-19T17:43:20.174Z,10.27
2019-05-19T17:46:25.287Z,15.00
2019-05-19T17:49:30.260Z,12.10
2019-05-19T17:52:35.683Z,11.90
2019-05-19T17:55:41.375Z,10.97
2019-05-19T17:58:48.140Z,11.50
2019-05-19T18:01:53.164Z,10.67
2019-05-19T18:04:58.514Z,10.90
2019-05-19T18:08:04.577Z,12.07
2019-05-19T18:11:09.743Z,10.40
2019-05-19T18:14:15.021Z,10.33
2019-05-19T18:17:20.199Z,10.17
2019-05-19T18:20:25.200Z,9.73
2019-05-19T18:23:31.607Z,9.70
2019-05-19T18:26:36.919Z,12.33
2019-05-19T18:29:42.062Z,10.07
2019-05-19T18:32:47.245Z,11.33
2019-05-19T18:35:52.318Z,10.70
2019-05-19T18:38:57.492Z,10.40
2019-05-19T18:42:02.499Z,11.50
2019-05-19T18:45:08.774Z,11.33
2019-05-19T18:48:35.227Z,12.43
2019-05-19T18:51:40.287Z,10.70
2019-05-19T18:54:46.757Z,11.13
2019-05-19T18:57:52.030Z,9.83
2019-05-19T19:00:59.652Z,13.37
2019-05-19T19:04:04.782Z,14.27
2019-05-19T19:07:09.923Z,13.50
2019-05-19T19:10:15.062Z,12.67
2019-05-19T19:13:20.182Z,14.63
2019-05-19T19:16:25.266Z,13.53
2019-05-19T19:19:30.321Z,18.70
2019-05-19T19:22:35.399Z,13.10
2019-05-19T19:25:40.683Z,17.40
2019-05-19T19:28:45.661Z,14.03
2019-05-19T19:31:51.184Z,13.73
2019-05-19T19:34:56.292Z,15.60
2019-05-19T19:38:01.347Z,15.87
2019-05-19T19:41:06.451Z,12.70
2019-05-19T19:44:11.491Z,13.10
2019-05-19T19:47:16.622Z,14.33
2019-05-19T19:50:21.708Z,11.20
2019-05-19T19:53:26.815Z,10.67
2019-05-19T19:56:32.004Z,14.23
2019-05-19T19:59:36.997Z,12.13
2019-05-19T20:02:42.158Z,9.97
2019-05-19T20:05:47.322Z,11.20
2019-05-19T20:08:52.493Z,9.97
2019-05-19T20:11:57.475Z,9.37
2019-05-19T20:15:02.573Z,7.60
2019-05-19T20:18:07.781Z,8.90
2019-05-19T20:21:13.532Z,9.23
2019-05-19T20:24:18.510Z,8.17
2019-05-19T20:27:23.592Z,6.87
2019-05-19T20:30:35.574Z,6.30
2019-05-19T20:33:35.737Z,8.73
2019-05-19T20:36:40.713Z,8.87
2019-05-19T20:39:45.893Z,8.43
2019-05-19T20:42:50.914Z,8.50
2019-05-19T20:45:56.007Z,9.40
2019-05-19T20:49:01.057Z,9.00
2019-05-19T20:52:06.132Z,8.97
2019-05-19T20:55:11.305Z,8.80
2019-05-19T20:58:16.785Z,10.27
2019-05-19T21:01:22.788Z,10.90
2019-05-19T21:04:27.968Z,9.60
2019-05-19T21:07:33.360Z,10.33
2019-05-19T21:10:39.042Z,9.57
2019-05-19T21:13:44.188Z,10.07
2019-05-19T21:16:49.505Z,11.07
2019-05-19T21:19:54.864Z,12.63
2019-05-19T21:23:00.390Z,11.57
2019-05-19T21:26:05.654Z,17.73
2019-05-19T21:29:10.791Z,10.90
2019-05-19T21:32:15.791Z,9.63
2019-05-19T21:35:20.913Z,10.87
2019-05-19T21:38:25.913Z,10.83
2019-05-19T21:41:30.994Z,9.67
2019-05-19T21:44:36.171Z,10.30
2019-05-19T21:47:41.255Z,11.50
2019-05-19T21:50:46.225Z,11.23
2019-05-19T21:53:51.462Z,11.50
2019-05-19T21:56:58.098Z,10.47
2019-05-19T22:00:03.382Z,11.00
2019-05-19T22:03:08.718Z,12.83
2019-05-19T22:06:13.965Z,11.17
2019-05-19T22:09:18.930Z,11.00
2019-05-19T22:12:24.259Z,10.60
2019-05-19T22:15:29.458Z,10.37
2019-05-19T22:18:34.782Z,11.33
2019-05-19T22:21:39.753Z,11.73
2019-05-19T22:24:44.799Z,11.67
2019-05-19T22:27:49.848Z,12.00
2019-05-19T22:30:54.823Z,11.83
2019-05-19T22:33:59.788Z,11.17
2019-05-19T22:37:04.836Z,11.40
2019-05-19T22:40:10.899Z,11.97
2019-05-19T22:43:15.983Z,13.30
2019-05-19T22:46:21.013Z,11.63
2019-05-19T22:49:26.068Z,11.97
2019-05-19T22:52:31.013Z,13.27
2019-05-19T22:55:35.997Z,12.77
2019-05-19T22:58:41.633Z,12.90
2019-05-19T23:01:51.724Z,12.33
2019-05-19T23:04:53.699Z,12.63
2019-05-19T23:07:58.750Z,13.30
2019-05-19T23:11:03.867Z,14.07
2019-05-19T23:14:08.833Z,14.00
2019-05-19T23:17:13.946Z,13.83
2019-05-19T23:20:19.174Z,15.10
2019-05-19T23:23:24.334Z,14.67
2019-05-19T23:26:29.302Z,15.53
2019-05-19T23:29:34.266Z,13.60
2019-05-19T23:32:39.404Z,13.50
2019-05-19T23:35:44.424Z,14.57
2019-05-19T23:38:49.406Z,15.00
2019-05-19T23:41:54.429Z,13.70
2019-05-19T23:44:59.500Z,15.37
2019-05-19T23:48:04.518Z,18.13
2019-05-19T23:51:09.658Z,14.23
2019-05-19T23:54:14.715Z,16.33
2019-05-19T23:57:19.697Z,14.40
